KGJT

Grand Junction Regional Airport

Grand Junction, Colorado, USA
METAR KGJT 180753Z AUTO 11003KT 10SM CLR M04/M12 A3018 RMK AO2 SLP230 T10391122 $
Observed Flight Rules
Dec-18 @ 07:53 UTC (49 minutes ago) Visual Flight Rules
Wind Visibility Clouds
110° at 3 knots 10 miles
  • Clear skies
Temperatures Readings
Current -4°C / 25°F
Dewpoint -12°C / 10°F
Humidity 54%
Altimeter 30.18" Hg
Pressure 1023 hPa
Elevation 1475
METAR KGJT 180753Z AUTO 11003KT 10SM CLR M04/M12 A3018 RMK AO2 SLP230 T10391122 $
Observed Flight Rules
Dec-18 @ 07:53 UTC
(49 minutes ago)
VFR
Wind Visibility
110° at 3 knots 10 miles
Clouds
  • Clear skies
Temperature Dewpoint
-4°C / 25°F -12°C / 10°F
Humidity Altimeter Pressure
54% 30.18" Hg 1023 hPa